sensor_id;sensor_type;location;lat;lon;timestamp;P1;durP1;ratioP1;P2;durP2;ratioP2
71253;SDS011;59019;47.638;18.966;2023-12-20T00:01:46;41.67;;;24.80;;
71253;SDS011;59019;47.638;18.966;2023-12-20T00:04:11;41.07;;;24.93;;
71253;SDS011;59019;47.638;18.966;2023-12-20T00:06:37;38.07;;;25.23;;
71253;SDS011;59019;47.638;18.966;2023-12-20T00:09:02;40.07;;;25.93;;
71253;SDS011;59019;47.638;18.966;2023-12-20T00:11:28;40.20;;;24.73;;
71253;SDS011;59019;47.638;18.966;2023-12-20T00:13:56;37.38;;;24.25;;
71253;SDS011;59019;47.638;18.966;2023-12-20T00:16:24;41.38;;;25.63;;
71253;SDS011;59019;47.638;18.966;2023-12-20T00:18:50;49.17;;;29.63;;
71253;SDS011;59019;47.638;18.966;2023-12-20T00:21:15;44.87;;;27.00;;
71253;SDS011;59019;47.638;18.966;2023-12-20T00:23:41;47.47;;;29.87;;
71253;SDS011;59019;47.638;18.966;2023-12-20T00:26:06;48.03;;;28.83;;
71253;SDS011;59019;47.638;18.966;2023-12-20T00:28:31;48.75;;;26.58;;
71253;SDS011;59019;47.638;18.966;2023-12-20T00:30:57;38.30;;;24.40;;
71253;SDS011;59019;47.638;18.966;2023-12-20T00:33:22;38.13;;;25.40;;
71253;SDS011;59019;47.638;18.966;2023-12-20T00:35:48;61.80;;;26.23;;
71253;SDS011;59019;47.638;18.966;2023-12-20T00:38:14;39.05;;;25.58;;
71253;SDS011;59019;47.638;18.966;2023-12-20T00:40:39;38.58;;;24.80;;
71253;SDS011;59019;47.638;18.966;2023-12-20T00:43:05;37.80;;;24.70;;
71253;SDS011;59019;47.638;18.966;2023-12-20T00:45:30;37.30;;;25.17;;
71253;SDS011;59019;47.638;18.966;2023-12-20T00:47:56;38.33;;;25.60;;
71253;SDS011;59019;47.638;18.966;2023-12-20T00:50:21;38.07;;;26.37;;
71253;SDS011;59019;47.638;18.966;2023-12-20T00:52:49;40.33;;;26.13;;
71253;SDS011;59019;47.638;18.966;2023-12-20T00:55:15;39.40;;;26.97;;
71253;SDS011;59019;47.638;18.966;2023-12-20T00:57:40;39.73;;;26.80;;
71253;SDS011;59019;47.638;18.966;2023-12-20T01:00:06;37.58;;;25.08;;
71253;SDS011;59019;47.638;18.966;2023-12-20T01:02:31;38.33;;;25.40;;
71253;SDS011;59019;47.638;18.966;2023-12-20T01:04:57;39.53;;;25.97;;
71253;SDS011;59019;47.638;18.966;2023-12-20T01:07:22;40.13;;;25.57;;
71253;SDS011;59019;47.638;18.966;2023-12-20T01:09:48;40.77;;;25.73;;
71253;SDS011;59019;47.638;18.966;2023-12-20T01:12:13;56.70;;;29.53;;
71253;SDS011;59019;47.638;18.966;2023-12-20T01:14:39;52.47;;;30.20;;
71253;SDS011;59019;47.638;18.966;2023-12-20T01:17:04;42.40;;;29.47;;
71253;SDS011;59019;47.638;18.966;2023-12-20T01:19:30;44.57;;;30.00;;
71253;SDS011;59019;47.638;18.966;2023-12-20T01:21:55;51.80;;;29.90;;
71253;SDS011;59019;47.638;18.966;2023-12-20T01:24:21;43.47;;;26.37;;
71253;SDS011;59019;47.638;18.966;2023-12-20T01:26:46;36.10;;;24.00;;
71253;SDS011;59019;47.638;18.966;2023-12-20T01:29:12;40.57;;;23.87;;
71253;SDS011;59019;47.638;18.966;2023-12-20T01:31:39;36.25;;;23.33;;
71253;SDS011;59019;47.638;18.966;2023-12-20T01:34:05;36.75;;;24.33;;
71253;SDS011;59019;47.638;18.966;2023-12-20T01:36:30;51.22;;;24.65;;
71253;SDS011;59019;47.638;18.966;2023-12-20T01:38:56;56.87;;;25.13;;
71253;SDS011;59019;47.638;18.966;2023-12-20T01:41:21;37.80;;;22.83;;
71253;SDS011;59019;47.638;18.966;2023-12-20T01:43:47;45.33;;;23.20;;
71253;SDS011;59019;47.638;18.966;2023-12-20T01:46:12;34.80;;;23.20;;
71253;SDS011;59019;47.638;18.966;2023-12-20T01:48:37;35.93;;;24.40;;
71253;SDS011;59019;47.638;18.966;2023-12-20T01:51:04;38.40;;;23.92;;
71253;SDS011;59019;47.638;18.966;2023-12-20T01:53:29;33.77;;;22.93;;
71253;SDS011;59019;47.638;18.966;2023-12-20T01:55:55;34.53;;;23.60;;
71253;SDS011;59019;47.638;18.966;2023-12-20T01:58:22;34.38;;;24.25;;
71253;SDS011;59019;47.638;18.966;2023-12-20T02:00:48;43.80;;;25.03;;
71253;SDS011;59019;47.638;18.966;2023-12-20T02:03:14;41.55;;;26.52;;
71253;SDS011;59019;47.638;18.966;2023-12-20T02:05:40;34.38;;;23.02;;
71253;SDS011;59019;47.638;18.966;2023-12-20T02:08:06;37.63;;;24.80;;
71253;SDS011;59019;47.638;18.966;2023-12-20T02:10:32;36.30;;;24.70;;
71253;SDS011;59019;47.638;18.966;2023-12-20T02:12:57;38.87;;;25.20;;
71253;SDS011;59019;47.638;18.966;2023-12-20T02:15:23;49.60;;;29.30;;
71253;SDS011;59019;47.638;18.966;2023-12-20T02:17:49;41.85;;;28.83;;
71253;SDS011;59019;47.638;18.966;2023-12-20T02:20:15;48.25;;;29.52;;
71253;SDS011;59019;47.638;18.966;2023-12-20T02:22:40;41.07;;;27.43;;
71253;SDS011;59019;47.638;18.966;2023-12-20T02:25:06;42.30;;;26.23;;
71253;SDS011;59019;47.638;18.966;2023-12-20T02:27:31;37.47;;;24.87;;
71253;SDS011;59019;47.638;18.966;2023-12-20T02:29:57;37.85;;;24.85;;
71253;SDS011;59019;47.638;18.966;2023-12-20T02:32:41;38.77;;;24.50;;
71253;SDS011;59019;47.638;18.966;2023-12-20T02:35:27;37.90;;;25.17;;
71253;SDS011;59019;47.638;18.966;2023-12-20T02:38:13;36.17;;;23.77;;
71253;SDS011;59019;47.638;18.966;2023-12-20T02:40:59;35.23;;;23.43;;
71253;SDS011;59019;47.638;18.966;2023-12-20T02:43:45;33.03;;;23.48;;
71253;SDS011;59019;47.638;18.966;2023-12-20T02:46:30;36.75;;;24.27;;
71253;SDS011;59019;47.638;18.966;2023-12-20T02:49:16;35.03;;;24.17;;
71253;SDS011;59019;47.638;18.966;2023-12-20T02:52:02;33.08;;;23.30;;
71253;SDS011;59019;47.638;18.966;2023-12-20T02:54:48;34.72;;;23.35;;
71253;SDS011;59019;47.638;18.966;2023-12-20T02:57:33;35.50;;;23.38;;
71253;SDS011;59019;47.638;18.966;2023-12-20T03:00:21;32.70;;;22.98;;
71253;SDS011;59019;47.638;18.966;2023-12-20T03:03:07;40.50;;;23.80;;
71253;SDS011;59019;47.638;18.966;2023-12-20T03:05:53;37.93;;;24.00;;
71253;SDS011;59019;47.638;18.966;2023-12-20T03:08:38;34.90;;;23.07;;
71253;SDS011;59019;47.638;18.966;2023-12-20T03:11:26;37.30;;;24.05;;
71253;SDS011;59019;47.638;18.966;2023-12-20T03:14:13;41.93;;;24.20;;
71253;SDS011;59019;47.638;18.966;2023-12-20T03:16:58;43.53;;;22.83;;
71253;SDS011;59019;47.638;18.966;2023-12-20T03:19:44;36.33;;;23.53;;
71253;SDS011;59019;47.638;18.966;2023-12-20T03:22:30;35.17;;;22.43;;
71253;SDS011;59019;47.638;18.966;2023-12-20T03:25:16;44.88;;;25.05;;
71253;SDS011;59019;47.638;18.966;2023-12-20T03:28:01;56.83;;;25.85;;
71253;SDS011;59019;47.638;18.966;2023-12-20T03:30:47;67.75;;;26.42;;
71253;SDS011;59019;47.638;18.966;2023-12-20T03:33:33;41.15;;;24.95;;
71253;SDS011;59019;47.638;18.966;2023-12-20T03:36:19;37.53;;;24.05;;
71253;SDS011;59019;47.638;18.966;2023-12-20T03:39:05;33.90;;;22.55;;
71253;SDS011;59019;47.638;18.966;2023-12-20T03:41:51;36.33;;;22.95;;
71253;SDS011;59019;47.638;18.966;2023-12-20T03:44:38;42.92;;;24.27;;
71253;SDS011;59019;47.638;18.966;2023-12-20T03:47:25;37.03;;;24.13;;
71253;SDS011;59019;47.638;18.966;2023-12-20T03:50:11;34.65;;;23.65;;
71253;SDS011;59019;47.638;18.966;2023-12-20T03:52:57;36.42;;;23.63;;
71253;SDS011;59019;47.638;18.966;2023-12-20T03:55:42;33.20;;;21.60;;
71253;SDS011;59019;47.638;18.966;2023-12-20T03:58:28;36.72;;;23.23;;
71253;SDS011;59019;47.638;18.966;2023-12-20T04:01:14;32.00;;;22.33;;
71253;SDS011;59019;47.638;18.966;2023-12-20T04:03:59;33.70;;;23.20;;
71253;SDS011;59019;47.638;18.966;2023-12-20T04:06:45;35.20;;;23.05;;
71253;SDS011;59019;47.638;18.966;2023-12-20T04:09:31;64.15;;;27.17;;
71253;SDS011;59019;47.638;18.966;2023-12-20T04:12:17;40.72;;;26.65;;
71253;SDS011;59019;47.638;18.966;2023-12-20T04:15:02;37.70;;;24.52;;
71253;SDS011;59019;47.638;18.966;2023-12-20T04:17:54;41.03;;;24.13;;
71253;SDS011;59019;47.638;18.966;2023-12-20T04:20:39;35.22;;;22.48;;
71253;SDS011;59019;47.638;18.966;2023-12-20T04:23:25;34.13;;;23.60;;
71253;SDS011;59019;47.638;18.966;2023-12-20T04:26:11;33.55;;;22.58;;
71253;SDS011;59019;47.638;18.966;2023-12-20T04:28:57;34.05;;;23.20;;
71253;SDS011;59019;47.638;18.966;2023-12-20T04:31:42;41.10;;;25.70;;
71253;SDS011;59019;47.638;18.966;2023-12-20T04:34:28;43.58;;;29.05;;
71253;SDS011;59019;47.638;18.966;2023-12-20T04:37:14;89.03;;;31.08;;
71253;SDS011;59019;47.638;18.966;2023-12-20T04:40:00;60.45;;;31.48;;
71253;SDS011;59019;47.638;18.966;2023-12-20T04:42:46;45.25;;;27.77;;
71253;SDS011;59019;47.638;18.966;2023-12-20T04:45:31;45.08;;;26.40;;
71253;SDS011;59019;47.638;18.966;2023-12-20T04:48:17;48.95;;;21.15;;
71253;SDS011;59019;47.638;18.966;2023-12-20T04:51:03;33.55;;;22.25;;
71253;SDS011;59019;47.638;18.966;2023-12-20T04:53:49;35.92;;;23.45;;
71253;SDS011;59019;47.638;18.966;2023-12-20T04:56:34;34.30;;;22.60;;
71253;SDS011;59019;47.638;18.966;2023-12-20T04:59:20;39.55;;;23.80;;
71253;SDS011;59019;47.638;18.966;2023-12-20T05:02:06;42.17;;;25.77;;
71253;SDS011;59019;47.638;18.966;2023-12-20T05:04:51;46.22;;;29.70;;
71253;SDS011;59019;47.638;18.966;2023-12-20T05:07:37;42.73;;;29.10;;
71253;SDS011;59019;47.638;18.966;2023-12-20T05:10:23;38.23;;;24.93;;
71253;SDS011;59019;47.638;18.966;2023-12-20T05:13:09;37.93;;;24.93;;
71253;SDS011;59019;47.638;18.966;2023-12-20T05:15:54;41.30;;;26.58;;
71253;SDS011;59019;47.638;18.966;2023-12-20T05:18:40;41.83;;;26.17;;
71253;SDS011;59019;47.638;18.966;2023-12-20T05:21:26;40.17;;;26.58;;
71253;SDS011;59019;47.638;18.966;2023-12-20T05:24:12;46.88;;;24.98;;
71253;SDS011;59019;47.638;18.966;2023-12-20T05:26:57;41.92;;;24.83;;
71253;SDS011;59019;47.638;18.966;2023-12-20T05:29:43;45.60;;;26.25;;
71253;SDS011;59019;47.638;18.966;2023-12-20T05:32:29;34.90;;;23.40;;
71253;SDS011;59019;47.638;18.966;2023-12-20T05:35:14;36.50;;;23.92;;
71253;SDS011;59019;47.638;18.966;2023-12-20T05:38:00;32.92;;;22.08;;
71253;SDS011;59019;47.638;18.966;2023-12-20T05:40:46;36.63;;;22.03;;
71253;SDS011;59019;47.638;18.966;2023-12-20T05:43:32;31.57;;;22.50;;
71253;SDS011;59019;47.638;18.966;2023-12-20T05:46:18;36.17;;;24.33;;
71253;SDS011;59019;47.638;18.966;2023-12-20T05:49:03;36.47;;;24.17;;
71253;SDS011;59019;47.638;18.966;2023-12-20T05:51:49;37.13;;;25.15;;
71253;SDS011;59019;47.638;18.966;2023-12-20T05:54:36;55.22;;;26.20;;
71253;SDS011;59019;47.638;18.966;2023-12-20T05:57:22;46.63;;;24.65;;
71253;SDS011;59019;47.638;18.966;2023-12-20T06:00:08;36.08;;;21.63;;
71253;SDS011;59019;47.638;18.966;2023-12-20T06:02:55;35.35;;;24.73;;
71253;SDS011;59019;47.638;18.966;2023-12-20T06:05:40;32.95;;;23.20;;
71253;SDS011;59019;47.638;18.966;2023-12-20T06:08:26;33.83;;;23.60;;
71253;SDS011;59019;47.638;18.966;2023-12-20T06:11:12;33.55;;;22.67;;
71253;SDS011;59019;47.638;18.966;2023-12-20T06:13:58;34.40;;;22.80;;
71253;SDS011;59019;47.638;18.966;2023-12-20T06:16:45;35.40;;;24.15;;
71253;SDS011;59019;47.638;18.966;2023-12-20T06:19:31;37.35;;;23.60;;
71253;SDS011;59019;47.638;18.966;2023-12-20T06:22:16;41.85;;;27.00;;
71253;SDS011;59019;47.638;18.966;2023-12-20T06:25:02;51.75;;;33.78;;
71253;SDS011;59019;47.638;18.966;2023-12-20T06:27:48;68.50;;;43.38;;
71253;SDS011;59019;47.638;18.966;2023-12-20T06:30:34;58.70;;;37.30;;
71253;SDS011;59019;47.638;18.966;2023-12-20T06:33:20;31.67;;;22.10;;
71253;SDS011;59019;47.638;18.966;2023-12-20T06:36:07;34.10;;;23.05;;
71253;SDS011;59019;47.638;18.966;2023-12-20T06:38:53;36.25;;;22.85;;
71253;SDS011;59019;47.638;18.966;2023-12-20T06:41:39;31.38;;;22.00;;
71253;SDS011;59019;47.638;18.966;2023-12-20T06:44:25;28.20;;;21.08;;
71253;SDS011;59019;47.638;18.966;2023-12-20T06:47:11;30.20;;;21.65;;
71253;SDS011;59019;47.638;18.966;2023-12-20T06:49:57;29.95;;;20.90;;
71253;SDS011;59019;47.638;18.966;2023-12-20T06:52:42;28.70;;;21.80;;
71253;SDS011;59019;47.638;18.966;2023-12-20T06:55:28;30.15;;;22.42;;
71253;SDS011;59019;47.638;18.966;2023-12-20T06:58:14;31.05;;;22.40;;
71253;SDS011;59019;47.638;18.966;2023-12-20T07:01:00;41.28;;;25.80;;
71253;SDS011;59019;47.638;18.966;2023-12-20T07:03:46;37.70;;;26.13;;
71253;SDS011;59019;47.638;18.966;2023-12-20T07:06:32;90.13;;;44.90;;
71253;SDS011;59019;47.638;18.966;2023-12-20T07:09:17;79.53;;;44.83;;
71253;SDS011;59019;47.638;18.966;2023-12-20T07:12:03;84.03;;;45.53;;
71253;SDS011;59019;47.638;18.966;2023-12-20T07:14:49;73.72;;;44.00;;
71253;SDS011;59019;47.638;18.966;2023-12-20T07:17:37;71.57;;;44.90;;
71253;SDS011;59019;47.638;18.966;2023-12-20T07:20:26;62.25;;;38.63;;
71253;SDS011;59019;47.638;18.966;2023-12-20T07:23:12;66.80;;;40.45;;
71253;SDS011;59019;47.638;18.966;2023-12-20T07:25:57;54.17;;;34.83;;
71253;SDS011;59019;47.638;18.966;2023-12-20T07:28:43;48.45;;;30.17;;
71253;SDS011;59019;47.638;18.966;2023-12-20T07:31:29;47.23;;;29.57;;
71253;SDS011;59019;47.638;18.966;2023-12-20T07:34:16;42.63;;;27.60;;
71253;SDS011;59019;47.638;18.966;2023-12-20T07:37:01;43.53;;;27.10;;
71253;SDS011;59019;47.638;18.966;2023-12-20T07:39:47;49.03;;;28.48;;
71253;SDS011;59019;47.638;18.966;2023-12-20T07:42:33;46.05;;;28.15;;
71253;SDS011;59019;47.638;18.966;2023-12-20T07:45:19;43.85;;;27.25;;
71253;SDS011;59019;47.638;18.966;2023-12-20T07:48:05;46.88;;;28.25;;
71253;SDS011;59019;47.638;18.966;2023-12-20T07:50:52;63.40;;;30.40;;
71253;SDS011;59019;47.638;18.966;2023-12-20T07:53:39;52.17;;;29.88;;
71253;SDS011;59019;47.638;18.966;2023-12-20T07:56:24;53.97;;;31.85;;
71253;SDS011;59019;47.638;18.966;2023-12-20T07:59:10;54.38;;;32.28;;
71253;SDS011;59019;47.638;18.966;2023-12-20T08:01:56;54.63;;;33.55;;
71253;SDS011;59019;47.638;18.966;2023-12-20T08:04:42;63.30;;;34.45;;
71253;SDS011;59019;47.638;18.966;2023-12-20T08:07:29;59.47;;;35.33;;
71253;SDS011;59019;47.638;18.966;2023-12-20T08:10:14;53.60;;;32.50;;
71253;SDS011;59019;47.638;18.966;2023-12-20T08:13:00;52.78;;;31.02;;
71253;SDS011;59019;47.638;18.966;2023-12-20T08:15:46;49.30;;;30.83;;
71253;SDS011;59019;47.638;18.966;2023-12-20T08:18:31;50.43;;;30.67;;
71253;SDS011;59019;47.638;18.966;2023-12-20T08:21:17;47.95;;;30.55;;
71253;SDS011;59019;47.638;18.966;2023-12-20T08:24:05;55.10;;;32.13;;
71253;SDS011;59019;47.638;18.966;2023-12-20T08:26:51;57.13;;;33.58;;
71253;SDS011;59019;47.638;18.966;2023-12-20T08:29:37;54.63;;;32.80;;
71253;SDS011;59019;47.638;18.966;2023-12-20T08:32:26;54.63;;;31.90;;
71253;SDS011;59019;47.638;18.966;2023-12-20T08:35:12;56.45;;;34.53;;
71253;SDS011;59019;47.638;18.966;2023-12-20T08:37:58;57.70;;;35.35;;
71253;SDS011;59019;47.638;18.966;2023-12-20T08:40:44;63.15;;;37.72;;
71253;SDS011;59019;47.638;18.966;2023-12-20T08:43:29;62.53;;;37.55;;
71253;SDS011;59019;47.638;18.966;2023-12-20T08:46:15;73.85;;;41.63;;
71253;SDS011;59019;47.638;18.966;2023-12-20T08:49:01;79.53;;;42.60;;
71253;SDS011;59019;47.638;18.966;2023-12-20T08:51:47;73.18;;;40.40;;
71253;SDS011;59019;47.638;18.966;2023-12-20T08:54:33;70.27;;;40.03;;
71253;SDS011;59019;47.638;18.966;2023-12-20T08:57:19;68.10;;;39.17;;
71253;SDS011;59019;47.638;18.966;2023-12-20T09:00:06;61.17;;;37.75;;
71253;SDS011;59019;47.638;18.966;2023-12-20T09:02:53;59.60;;;38.17;;
71253;SDS011;59019;47.638;18.966;2023-12-20T09:05:40;57.45;;;36.13;;
71253;SDS011;59019;47.638;18.966;2023-12-20T09:08:25;59.22;;;36.85;;
71253;SDS011;59019;47.638;18.966;2023-12-20T09:11:11;78.72;;;44.80;;
71253;SDS011;59019;47.638;18.966;2023-12-20T09:13:57;71.82;;;41.85;;
71253;SDS011;59019;47.638;18.966;2023-12-20T09:16:43;82.60;;;44.72;;
71253;SDS011;59019;47.638;18.966;2023-12-20T09:19:28;68.93;;;40.53;;
71253;SDS011;59019;47.638;18.966;2023-12-20T09:22:15;61.90;;;39.03;;
71253;SDS011;59019;47.638;18.966;2023-12-20T09:25:00;62.22;;;38.40;;
71253;SDS011;59019;47.638;18.966;2023-12-20T09:27:49;60.30;;;37.88;;
71253;SDS011;59019;47.638;18.966;2023-12-20T09:30:35;66.90;;;41.23;;
71253;SDS011;59019;47.638;18.966;2023-12-20T09:33:24;67.63;;;42.78;;
71253;SDS011;59019;47.638;18.966;2023-12-20T09:36:02;68.28;;;41.13;;
71253;SDS011;59019;47.638;18.966;2023-12-20T09:38:28;66.83;;;40.57;;
71253;SDS011;59019;47.638;18.966;2023-12-20T09:40:53;70.27;;;42.97;;
71253;SDS011;59019;47.638;18.966;2023-12-20T09:43:20;67.50;;;42.35;;
71253;SDS011;59019;47.638;18.966;2023-12-20T09:45:48;65.28;;;41.70;;
71253;SDS011;59019;47.638;18.966;2023-12-20T09:48:17;63.08;;;41.15;;
71253;SDS011;59019;47.638;18.966;2023-12-20T09:50:43;67.80;;;42.53;;
71253;SDS011;59019;47.638;18.966;2023-12-20T09:53:09;66.50;;;42.53;;
71253;SDS011;59019;47.638;18.966;2023-12-20T09:55:39;65.93;;;43.38;;
71253;SDS011;59019;47.638;18.966;2023-12-20T09:58:06;64.90;;;41.63;;
71253;SDS011;59019;47.638;18.966;2023-12-20T10:00:33;75.65;;;44.03;;
71253;SDS011;59019;47.638;18.966;2023-12-20T10:03:01;66.22;;;42.90;;
71253;SDS011;59019;47.638;18.966;2023-12-20T10:05:31;71.45;;;42.85;;
71253;SDS011;59019;47.638;18.966;2023-12-20T10:07:58;62.33;;;39.45;;
71253;SDS011;59019;47.638;18.966;2023-12-20T10:10:24;56.60;;;35.95;;
71253;SDS011;59019;47.638;18.966;2023-12-20T10:13:07;49.15;;;29.70;;
71253;SDS011;59019;47.638;18.966;2023-12-20T10:15:35;75.82;;;36.80;;
71253;SDS011;59019;47.638;18.966;2023-12-20T10:18:02;86.68;;;39.13;;
71253;SDS011;59019;47.638;18.966;2023-12-20T10:20:28;67.78;;;32.88;;
71253;SDS011;59019;47.638;18.966;2023-12-20T10:22:55;61.05;;;30.20;;
71253;SDS011;59019;47.638;18.966;2023-12-20T10:25:21;57.17;;;29.25;;
71253;SDS011;59019;47.638;18.966;2023-12-20T10:27:47;53.60;;;28.73;;
71253;SDS011;59019;47.638;18.966;2023-12-20T10:30:13;56.27;;;29.60;;
71253;SDS011;59019;47.638;18.966;2023-12-20T10:32:39;53.58;;;27.63;;
71253;SDS011;59019;47.638;18.966;2023-12-20T10:35:05;56.40;;;26.85;;
71253;SDS011;59019;47.638;18.966;2023-12-20T10:37:31;56.22;;;27.95;;
71253;SDS011;59019;47.638;18.966;2023-12-20T10:40:01;54.03;;;28.23;;
71253;SDS011;59019;47.638;18.966;2023-12-20T10:42:29;59.40;;;28.60;;
71253;SDS011;59019;47.638;18.966;2023-12-20T10:44:55;61.93;;;30.27;;
71253;SDS011;59019;47.638;18.966;2023-12-20T10:47:21;63.88;;;30.98;;
71253;SDS011;59019;47.638;18.966;2023-12-20T10:49:47;69.78;;;32.03;;
71253;SDS011;59019;47.638;18.966;2023-12-20T10:52:14;67.68;;;31.00;;
71253;SDS011;59019;47.638;18.966;2023-12-20T10:54:41;58.25;;;28.92;;
71253;SDS011;59019;47.638;18.966;2023-12-20T10:57:07;62.47;;;30.77;;
71253;SDS011;59019;47.638;18.966;2023-12-20T10:59:33;56.42;;;28.70;;
71253;SDS011;59019;47.638;18.966;2023-12-20T11:02:02;67.18;;;32.63;;
71253;SDS011;59019;47.638;18.966;2023-12-20T11:07:32;21.40;;;12.63;;
71253;SDS011;59019;47.638;18.966;2023-12-20T11:10:40;20.67;;;12.13;;
71253;SDS011;59019;47.638;18.966;2023-12-20T11:13:07;22.17;;;13.02;;
71253;SDS011;59019;47.638;18.966;2023-12-20T11:15:37;20.50;;;11.98;;
71253;SDS011;59019;47.638;18.966;2023-12-20T11:18:03;20.65;;;11.85;;
71253;SDS011;59019;47.638;18.966;2023-12-20T11:20:38;20.13;;;12.23;;
71253;SDS011;59019;47.638;18.966;2023-12-20T11:23:05;21.75;;;15.13;;
71253;SDS011;59019;47.638;18.966;2023-12-20T11:28:22;21.20;;;12.57;;
71253;SDS011;59019;47.638;18.966;2023-12-20T11:30:51;19.80;;;12.52;;
71253;SDS011;59019;47.638;18.966;2023-12-20T11:33:23;17.80;;;11.43;;
71253;SDS011;59019;47.638;18.966;2023-12-20T11:35:51;18.15;;;11.73;;
71253;SDS011;59019;47.638;18.966;2023-12-20T11:38:20;19.98;;;12.30;;
71253;SDS011;59019;47.638;18.966;2023-12-20T11:40:47;20.40;;;11.95;;
71253;SDS011;59019;47.638;18.966;2023-12-20T11:43:29;18.95;;;11.50;;
71253;SDS011;59019;47.638;18.966;2023-12-20T11:46:06;19.40;;;11.90;;
71253;SDS011;59019;47.638;18.966;2023-12-20T11:48:34;21.67;;;12.33;;
71253;SDS011;59019;47.638;18.966;2023-12-20T11:51:00;21.58;;;12.07;;
71253;SDS011;59019;47.638;18.966;2023-12-20T11:53:25;17.70;;;11.30;;
71253;SDS011;59019;47.638;18.966;2023-12-20T11:55:51;16.70;;;9.70;;
71253;SDS011;59019;47.638;18.966;2023-12-20T11:58:16;19.47;;;11.27;;
71253;SDS011;59019;47.638;18.966;2023-12-20T12:00:42;18.30;;;11.10;;
71253;SDS011;59019;47.638;18.966;2023-12-20T12:03:08;17.85;;;10.60;;
71253;SDS011;59019;47.638;18.966;2023-12-20T12:05:34;17.90;;;10.73;;
71253;SDS011;59019;47.638;18.966;2023-12-20T12:08:00;19.17;;;11.17;;
71253;SDS011;59019;47.638;18.966;2023-12-20T12:10:26;20.73;;;11.82;;
71253;SDS011;59019;47.638;18.966;2023-12-20T12:12:51;17.90;;;10.80;;
71253;SDS011;59019;47.638;18.966;2023-12-20T12:15:17;17.33;;;9.90;;
71253;SDS011;59019;47.638;18.966;2023-12-20T12:17:42;17.80;;;9.77;;
71253;SDS011;59019;47.638;18.966;2023-12-20T12:20:08;17.60;;;10.35;;
71253;SDS011;59019;47.638;18.966;2023-12-20T12:22:35;19.55;;;11.50;;
71253;SDS011;59019;47.638;18.966;2023-12-20T12:25:11;21.17;;;11.65;;
71253;SDS011;59019;47.638;18.966;2023-12-20T12:27:39;19.70;;;11.52;;
71253;SDS011;59019;47.638;18.966;2023-12-20T12:30:05;16.92;;;10.00;;
71253;SDS011;59019;47.638;18.966;2023-12-20T12:32:32;18.48;;;10.73;;
71253;SDS011;59019;47.638;18.966;2023-12-20T12:35:02;17.13;;;10.33;;
71253;SDS011;59019;47.638;18.966;2023-12-20T12:37:28;19.13;;;10.90;;
71253;SDS011;59019;47.638;18.966;2023-12-20T12:39:54;20.07;;;11.13;;
71253;SDS011;59019;47.638;18.966;2023-12-20T12:42:20;19.07;;;11.00;;
71253;SDS011;59019;47.638;18.966;2023-12-20T12:44:46;16.73;;;9.48;;
71253;SDS011;59019;47.638;18.966;2023-12-20T12:47:12;17.70;;;9.88;;
71253;SDS011;59019;47.638;18.966;2023-12-20T12:49:38;16.77;;;9.97;;
71253;SDS011;59019;47.638;18.966;2023-12-20T12:52:05;14.37;;;8.37;;
71253;SDS011;59019;47.638;18.966;2023-12-20T12:54:31;17.43;;;9.37;;
71253;SDS011;59019;47.638;18.966;2023-12-20T12:56:56;14.70;;;8.50;;
71253;SDS011;59019;47.638;18.966;2023-12-20T12:59:23;17.23;;;9.32;;
71253;SDS011;59019;47.638;18.966;2023-12-20T13:01:49;17.48;;;9.52;;
71253;SDS011;59019;47.638;18.966;2023-12-20T13:04:15;16.40;;;9.47;;
71253;SDS011;59019;47.638;18.966;2023-12-20T13:06:40;15.47;;;8.93;;
71253;SDS011;59019;47.638;18.966;2023-12-20T13:09:07;15.27;;;8.40;;
71253;SDS011;59019;47.638;18.966;2023-12-20T13:11:34;14.32;;;8.38;;
71253;SDS011;59019;47.638;18.966;2023-12-20T13:14:00;15.27;;;8.90;;
71253;SDS011;59019;47.638;18.966;2023-12-20T13:16:40;15.25;;;8.98;;
71253;SDS011;59019;47.638;18.966;2023-12-20T13:19:13;16.17;;;9.40;;
71253;SDS011;59019;47.638;18.966;2023-12-20T13:21:39;16.80;;;9.43;;
71253;SDS011;59019;47.638;18.966;2023-12-20T13:24:07;15.63;;;9.30;;
71253;SDS011;59019;47.638;18.966;2023-12-20T13:26:33;16.57;;;9.40;;
71253;SDS011;59019;47.638;18.966;2023-12-20T13:29:01;16.27;;;9.50;;
71253;SDS011;59019;47.638;18.966;2023-12-20T13:31:29;16.42;;;8.85;;
71253;SDS011;59019;47.638;18.966;2023-12-20T13:34:04;15.38;;;9.02;;
71253;SDS011;59019;47.638;18.966;2023-12-20T13:36:33;13.20;;;7.47;;
71253;SDS011;59019;47.638;18.966;2023-12-20T13:38:58;15.85;;;8.60;;
71253;SDS011;59019;47.638;18.966;2023-12-20T13:41:23;12.93;;;7.40;;
71253;SDS011;59019;47.638;18.966;2023-12-20T13:43:51;14.43;;;8.40;;
71253;SDS011;59019;47.638;18.966;2023-12-20T13:46:20;14.65;;;8.80;;
71253;SDS011;59019;47.638;18.966;2023-12-20T13:48:48;17.30;;;9.90;;
71253;SDS011;59019;47.638;18.966;2023-12-20T13:51:14;16.58;;;9.60;;
71253;SDS011;59019;47.638;18.966;2023-12-20T13:53:40;17.00;;;9.73;;
71253;SDS011;59019;47.638;18.966;2023-12-20T13:56:15;18.75;;;11.00;;
71253;SDS011;59019;47.638;18.966;2023-12-20T13:58:43;16.08;;;9.50;;
71253;SDS011;59019;47.638;18.966;2023-12-20T14:01:15;16.05;;;8.65;;
71253;SDS011;59019;47.638;18.966;2023-12-20T14:03:40;18.70;;;8.37;;
71253;SDS011;59019;47.638;18.966;2023-12-20T14:06:06;32.87;;;12.17;;
71253;SDS011;59019;47.638;18.966;2023-12-20T14:08:32;29.88;;;9.93;;
71253;SDS011;59019;47.638;18.966;2023-12-20T14:10:57;14.95;;;7.63;;
71253;SDS011;59019;47.638;18.966;2023-12-20T14:13:22;33.78;;;12.30;;
71253;SDS011;59019;47.638;18.966;2023-12-20T14:15:55;22.38;;;10.27;;
71253;SDS011;59019;47.638;18.966;2023-12-20T14:18:21;26.63;;;9.97;;
71253;SDS011;59019;47.638;18.966;2023-12-20T14:20:47;21.40;;;10.10;;
71253;SDS011;59019;47.638;18.966;2023-12-20T14:23:13;13.07;;;7.60;;
71253;SDS011;59019;47.638;18.966;2023-12-20T14:25:40;12.68;;;6.93;;
71253;SDS011;59019;47.638;18.966;2023-12-20T14:28:09;11.25;;;6.30;;
71253;SDS011;59019;47.638;18.966;2023-12-20T14:30:37;10.30;;;6.15;;
71253;SDS011;59019;47.638;18.966;2023-12-20T14:33:04;12.32;;;6.90;;
71253;SDS011;59019;47.638;18.966;2023-12-20T14:35:31;13.80;;;7.47;;
71253;SDS011;59019;47.638;18.966;2023-12-20T14:37:57;11.60;;;6.97;;
71253;SDS011;59019;47.638;18.966;2023-12-20T14:40:26;16.35;;;8.98;;
71253;SDS011;59019;47.638;18.966;2023-12-20T14:42:54;10.20;;;5.87;;
71253;SDS011;59019;47.638;18.966;2023-12-20T14:45:20;13.43;;;7.63;;
71253;SDS011;59019;47.638;18.966;2023-12-20T14:47:46;10.27;;;5.77;;
71253;SDS011;59019;47.638;18.966;2023-12-20T14:50:12;11.57;;;7.07;;
71253;SDS011;59019;47.638;18.966;2023-12-20T14:52:42;16.15;;;9.60;;
71253;SDS011;59019;47.638;18.966;2023-12-20T14:55:10;40.38;;;17.63;;
71253;SDS011;59019;47.638;18.966;2023-12-20T14:57:36;17.27;;;9.10;;
71253;SDS011;59019;47.638;18.966;2023-12-20T15:00:01;14.57;;;8.03;;
71253;SDS011;59019;47.638;18.966;2023-12-20T15:02:27;19.43;;;9.83;;
71253;SDS011;59019;47.638;18.966;2023-12-20T15:04:55;18.60;;;10.02;;